createdAt,value
2018-12-07T00:01:45.407Z,2.20
2018-12-07T00:04:20.183Z,2.10
2018-12-07T08:58:50.393Z,1.77
2018-12-07T09:01:25.149Z,1.50
2018-12-07T09:04:00.013Z,1.60
2018-12-07T09:06:34.837Z,1.20
2018-12-07T09:09:09.588Z,1.60
2018-12-07T09:11:44.499Z,1.50
2018-12-07T09:14:19.502Z,1.60
2018-12-07T09:16:54.231Z,1.70
2018-12-07T09:19:29.246Z,1.77
2018-12-07T09:22:03.970Z,1.80
2018-12-07T09:24:38.746Z,1.80
2018-12-07T09:27:13.572Z,1.40
2018-12-07T09:29:48.546Z,1.57
2018-12-07T09:32:23.355Z,1.57
2018-12-07T09:34:58.077Z,1.30
2018-12-07T09:37:33.005Z,1.73
2018-12-07T09:40:08.086Z,1.50
2018-12-07T09:42:42.949Z,1.37
2018-12-07T09:45:17.748Z,1.30
2018-12-07T09:47:52.698Z,1.10
2018-12-07T09:50:27.738Z,1.40
2018-12-07T09:53:02.470Z,1.30
2018-12-07T09:55:37.318Z,1.47
2018-12-07T09:58:12.259Z,1.60
2018-12-07T10:00:47.130Z,1.40
2018-12-07T10:03:22.132Z,1.50
2018-12-07T10:05:57.035Z,2.47
2018-12-07T10:08:31.842Z,1.50
2018-12-07T10:11:06.801Z,1.20
2018-12-07T10:13:41.455Z,1.47
2018-12-07T10:16:16.447Z,1.07
2018-12-07T10:18:51.449Z,1.43
2018-12-07T10:21:26.485Z,1.37
2018-12-07T10:24:01.477Z,1.50
2018-12-07T10:26:36.395Z,1.40
2018-12-07T10:29:11.113Z,2.00
2018-12-07T10:31:46.090Z,1.20
2018-12-07T10:34:21.060Z,1.10
2018-12-07T10:36:55.783Z,1.00
2018-12-07T10:39:30.660Z,0.90
2018-12-07T10:42:05.905Z,1.00
2018-12-07T10:44:40.590Z,1.13
2018-12-07T10:47:15.464Z,1.13
2018-12-07T10:49:50.225Z,1.10
2018-12-07T10:52:25.042Z,1.00
2018-12-07T10:54:59.973Z,1.10
2018-12-07T10:57:34.745Z,1.20
2018-12-07T11:00:22.701Z,1.60
2018-12-07T11:02:59.055Z,1.87
2018-12-07T11:05:38.984Z,1.60
2018-12-07T11:08:19.422Z,1.60
2018-12-07T11:10:56.176Z,1.50
2018-12-07T11:13:34.054Z,1.60
2018-12-07T11:16:14.035Z,1.30
2018-12-07T11:18:56.180Z,1.37
2018-12-07T11:21:36.968Z,1.50
2018-12-07T11:26:22.386Z,1.10
2018-12-07T11:29:02.606Z,1.30
2018-12-07T11:32:40.341Z,1.27
2018-12-07T11:35:20.985Z,1.07
2018-12-07T11:37:58.874Z,1.30
2018-12-07T11:40:33.575Z,1.20
2018-12-07T11:43:08.266Z,1.20
2018-12-07T11:45:42.982Z,1.40
2018-12-07T11:48:17.643Z,1.20
2018-12-07T11:50:52.440Z,1.03
2018-12-07T11:53:27.394Z,1.47
2018-12-07T11:56:02.243Z,1.13
2018-12-07T11:58:37.255Z,1.50
2018-12-07T12:01:13.415Z,1.30
2018-12-07T12:03:48.244Z,1.00
2018-12-07T12:06:23.069Z,1.20
2018-12-07T12:08:57.854Z,1.27
2018-12-07T12:11:32.731Z,1.00
2018-12-07T12:14:07.642Z,1.47
2018-12-07T12:16:42.718Z,1.20
2018-12-07T12:19:17.650Z,1.70
2018-12-07T12:21:52.402Z,1.97
2018-12-07T12:24:27.218Z,1.60
2018-12-07T12:27:02.179Z,1.53
2018-12-07T12:29:37.268Z,1.17
2018-12-07T12:32:11.880Z,1.77
2018-12-07T12:34:46.702Z,1.87
2018-12-07T12:37:21.508Z,1.77
2018-12-07T12:39:56.539Z,1.80
2018-12-07T12:42:31.184Z,2.20
2018-12-07T12:45:07.720Z,1.90
2018-12-07T12:47:42.528Z,2.30
2018-12-07T12:50:22.546Z,2.53
2018-12-07T12:52:57.256Z,2.07
2018-12-07T12:55:32.142Z,2.37
2018-12-07T12:58:07.010Z,2.07
2018-12-07T13:00:42.083Z,2.17
2018-12-07T13:03:17.383Z,2.57
2018-12-07T13:05:52.286Z,2.87
2018-12-07T13:08:27.033Z,2.53
2018-12-07T13:11:01.902Z,2.40
2018-12-07T13:13:36.790Z,2.90
2018-12-07T13:16:11.819Z,2.57
2018-12-07T13:18:46.529Z,2.70
2018-12-07T13:21:21.261Z,2.70
2018-12-07T13:23:56.193Z,3.67
2018-12-07T13:26:31.153Z,3.23
2018-12-07T13:29:05.944Z,2.37
2018-12-07T13:31:40.874Z,2.50
2018-12-07T13:34:15.688Z,2.53
2018-12-07T13:36:50.522Z,2.57
2018-12-07T13:39:25.430Z,2.63
2018-12-07T13:42:00.628Z,2.80
2018-12-07T13:44:42.324Z,2.37
2018-12-07T13:47:17.211Z,2.70
2018-12-07T13:49:56.544Z,2.50
2018-12-07T13:52:31.613Z,2.07
2018-12-07T13:55:06.744Z,2.07
2018-12-07T13:57:41.727Z,2.40
2018-12-07T14:00:16.595Z,2.30
2018-12-07T14:02:51.608Z,2.00
2018-12-07T14:05:32.203Z,2.20
2018-12-07T14:08:03.468Z,2.00
2018-12-07T14:10:38.301Z,2.30
2018-12-07T14:13:13.318Z,2.10
2018-12-07T14:15:48.448Z,2.20
2018-12-07T14:18:23.384Z,1.80
2018-12-07T14:20:58.349Z,1.80
2018-12-07T14:23:33.428Z,2.13
2018-12-07T14:26:08.489Z,2.00
2018-12-07T14:28:43.310Z,1.80
2018-12-07T14:31:18.055Z,1.70
2018-12-07T14:33:52.969Z,2.97
2018-12-07T14:36:27.891Z,1.70
2018-12-07T14:39:03.152Z,1.83
2018-12-07T14:41:38.106Z,2.63
2018-12-07T14:44:14.871Z,1.63
2018-12-07T14:46:50.453Z,1.57
2018-12-07T14:49:25.359Z,1.90
2018-12-07T14:52:00.159Z,1.20
2018-12-07T14:54:35.379Z,1.50
2018-12-07T14:57:11.152Z,1.60
2018-12-07T14:59:51.028Z,1.30
2018-12-07T15:02:26.512Z,1.37
2018-12-07T15:05:04.561Z,1.40
2018-12-07T15:07:39.390Z,1.40
2018-12-07T15:10:22.152Z,1.43
2018-12-07T15:12:59.473Z,1.13
2018-12-07T15:15:34.547Z,1.27
2018-12-07T15:18:12.270Z,1.07
2018-12-07T15:20:51.151Z,1.10
2018-12-07T15:23:26.141Z,1.20
2018-12-07T15:26:01.069Z,1.30
2018-12-07T15:28:36.175Z,1.60
2018-12-07T15:31:11.022Z,1.27
2018-12-07T15:33:46.263Z,1.73
2018-12-07T15:36:21.551Z,1.40
2018-12-07T15:38:56.822Z,1.17
2018-12-07T15:41:32.105Z,1.10
2018-12-07T15:44:07.141Z,1.30
2018-12-07T15:46:42.532Z,1.20
2018-12-07T15:49:17.561Z,1.50
2018-12-07T15:51:52.652Z,1.20
2018-12-07T15:54:27.517Z,1.10
2018-12-07T15:57:02.769Z,1.27
2018-12-07T15:59:37.841Z,1.27
2018-12-07T16:02:13.227Z,1.20
2018-12-07T16:04:48.625Z,1.40
2018-12-07T16:07:23.636Z,1.30
2018-12-07T16:09:58.893Z,1.63
2018-12-07T16:12:34.162Z,1.80
2018-12-07T16:15:09.024Z,1.60
2018-12-07T16:17:43.951Z,1.40
2018-12-07T16:20:19.874Z,1.30
2018-12-07T16:22:54.730Z,1.43
2018-12-07T16:25:30.000Z,1.23
2018-12-07T16:28:04.789Z,1.43
2018-12-07T16:30:39.780Z,1.30
2018-12-07T16:33:14.945Z,1.50
2018-12-07T16:35:50.094Z,1.30
2018-12-07T16:38:25.330Z,1.20
2018-12-07T16:41:00.327Z,1.27
2018-12-07T16:43:35.386Z,1.50
2018-12-07T16:46:10.831Z,1.40
2018-12-07T16:48:45.824Z,1.30
2018-12-07T16:51:20.728Z,1.80
2018-12-07T16:53:55.943Z,1.50
2018-12-07T16:56:31.064Z,1.30
2018-12-07T16:59:06.606Z,1.50
2018-12-07T17:01:41.595Z,1.40
2018-12-07T17:04:16.545Z,1.67
2018-12-07T17:06:51.640Z,1.83
2018-12-07T17:09:28.541Z,1.73
2018-12-07T17:12:03.520Z,1.63
2018-12-07T17:14:38.416Z,1.60
2018-12-07T17:17:13.740Z,1.70
2018-12-07T17:19:49.057Z,2.40
2018-12-07T17:22:23.970Z,1.60
2018-12-07T17:24:59.068Z,1.80
2018-12-07T17:27:33.997Z,1.63
2018-12-07T17:30:09.299Z,1.80
2018-12-07T17:32:44.731Z,1.80
2018-12-07T17:35:20.053Z,1.70
2018-12-07T17:37:55.453Z,1.80
2018-12-07T17:40:30.641Z,1.53
2018-12-07T17:43:05.537Z,1.67
2018-12-07T17:45:40.521Z,1.53
2018-12-07T17:48:15.618Z,1.70
2018-12-07T17:50:53.618Z,1.50
2018-12-07T17:53:28.523Z,1.90
2018-12-07T17:56:03.415Z,1.80
2018-12-07T17:58:38.598Z,1.90
2018-12-07T18:01:13.441Z,1.63
2018-12-07T18:03:48.509Z,1.47
2018-12-07T18:06:23.546Z,2.00
2018-12-07T18:08:58.626Z,1.70
2018-12-07T18:11:33.777Z,1.80
2018-12-07T18:14:08.537Z,1.67
2018-12-07T18:16:43.747Z,1.77
2018-12-07T18:19:18.736Z,1.70
2018-12-07T18:21:54.557Z,1.63
2018-12-07T18:24:29.644Z,1.90
2018-12-07T18:27:04.600Z,1.70
2018-12-07T18:29:39.592Z,1.70
2018-12-07T18:32:14.669Z,1.43
2018-12-07T18:34:49.567Z,1.73
2018-12-07T18:37:24.278Z,1.53
2018-12-07T18:39:59.303Z,1.33
2018-12-07T18:42:34.291Z,1.20
2018-12-07T18:45:09.475Z,1.27
2018-12-07T18:47:44.655Z,1.20
2018-12-07T18:50:19.613Z,1.10
2018-12-07T18:52:54.840Z,1.20
2018-12-07T18:55:29.738Z,1.53
2018-12-07T18:58:04.843Z,0.90
2018-12-07T19:00:39.925Z,1.10
2018-12-07T19:03:15.309Z,0.80
2018-12-07T19:05:50.445Z,0.77
2018-12-07T19:08:25.744Z,0.70
2018-12-07T19:11:00.745Z,0.80
2018-12-07T19:13:35.712Z,0.90
2018-12-07T19:16:10.745Z,0.83
2018-12-07T19:18:46.093Z,0.70
2018-12-07T19:21:21.176Z,0.90
2018-12-07T19:23:56.928Z,1.00
2018-12-07T19:26:31.900Z,0.90
2018-12-07T19:29:06.963Z,0.80
2018-12-07T19:31:42.047Z,1.07
2018-12-07T19:34:16.981Z,0.90
2018-12-07T19:36:53.288Z,1.00
2018-12-07T19:39:28.313Z,0.90
2018-12-07T19:42:02.957Z,0.83
2018-12-07T19:44:37.894Z,0.70
2018-12-07T19:47:12.734Z,0.60
2018-12-07T19:49:48.131Z,0.73
2018-12-07T19:52:23.154Z,0.60
2018-12-07T19:54:58.264Z,0.50
2018-12-07T19:57:33.335Z,0.53
2018-12-07T20:00:10.559Z,0.60
2018-12-07T20:02:45.674Z,0.60
2018-12-07T20:05:20.896Z,0.80
2018-12-07T20:07:55.775Z,0.60
2018-12-07T20:10:30.916Z,0.70
2018-12-07T20:13:07.987Z,0.80
2018-12-07T20:15:42.740Z,0.70
2018-12-07T20:18:17.670Z,0.80
2018-12-07T20:20:52.663Z,0.60
2018-12-07T20:23:28.080Z,0.90
2018-12-07T20:26:03.596Z,0.80
2018-12-07T20:28:38.478Z,0.70
2018-12-07T20:31:13.592Z,0.83
2018-12-07T20:33:48.643Z,0.93
2018-12-07T20:36:23.765Z,0.97
2018-12-07T20:38:58.774Z,1.13
2018-12-07T20:41:34.006Z,1.30
2018-12-07T20:44:09.168Z,1.20
2018-12-07T20:46:46.655Z,1.07
2018-12-07T20:49:22.301Z,1.03
2018-12-07T20:51:57.338Z,1.40
2018-12-07T20:54:32.212Z,1.17
2018-12-07T20:57:07.277Z,1.30
2018-12-07T20:59:42.002Z,1.00
2018-12-07T21:02:16.978Z,1.20
2018-12-07T21:04:53.248Z,1.03
2018-12-07T21:07:46.467Z,1.10
2018-12-07T21:11:43.328Z,1.20
2018-12-07T21:14:26.920Z,1.20
2018-12-07T21:17:09.735Z,0.90
2018-12-07T21:19:50.418Z,1.00
2018-12-07T21:22:25.397Z,0.80
2018-12-07T21:25:02.389Z,0.60
2018-12-07T21:27:37.444Z,0.60
2018-12-07T21:30:28.275Z,1.03
2018-12-07T21:33:03.273Z,1.00
2018-12-07T21:36:52.585Z,0.90
2018-12-07T21:39:41.738Z,1.20
2018-12-07T21:42:18.323Z,0.97
2018-12-07T21:44:53.448Z,1.10
2018-12-07T21:47:53.286Z,1.00
2018-12-07T21:50:28.358Z,0.73
2018-12-07T21:53:04.560Z,0.90
2018-12-07T21:55:39.848Z,1.20
2018-12-07T21:58:14.895Z,0.90
2018-12-07T22:00:49.905Z,0.77
2018-12-07T22:03:25.134Z,0.70
2018-12-07T22:06:00.074Z,0.60
2018-12-07T22:08:35.244Z,0.60
2018-12-07T22:11:11.342Z,0.70
2018-12-07T22:13:47.480Z,0.87
2018-12-07T22:16:22.284Z,0.80
2018-12-07T22:18:57.644Z,1.00
2018-12-07T22:21:32.650Z,0.90
2018-12-07T22:24:07.822Z,0.80
2018-12-07T22:26:42.848Z,0.73
2018-12-07T22:29:17.871Z,0.57
2018-12-07T22:31:53.124Z,0.50
2018-12-07T22:34:28.158Z,0.70
2018-12-07T22:37:03.368Z,0.83
2018-12-07T22:39:38.699Z,0.60
2018-12-07T22:42:20.807Z,0.60
2018-12-07T22:44:55.981Z,0.63
2018-12-07T22:47:31.111Z,0.57
2018-12-07T22:50:06.444Z,0.70
2018-12-07T22:52:41.400Z,0.73
2018-12-07T22:55:16.367Z,0.50
2018-12-07T22:57:51.426Z,0.57
2018-12-07T23:00:26.644Z,0.60
2018-12-07T23:03:01.545Z,0.60
2018-12-07T23:05:36.406Z,0.50
2018-12-07T23:08:11.359Z,0.53
2018-12-07T23:10:46.084Z,0.60
2018-12-07T23:13:25.637Z,0.67
2018-12-07T23:15:57.961Z,0.53
2018-12-07T23:18:32.863Z,0.60
2018-12-07T23:21:07.996Z,0.70
2018-12-07T23:23:42.721Z,0.63
2018-12-07T23:26:17.723Z,0.60
2018-12-07T23:28:52.663Z,0.47
2018-12-07T23:31:27.533Z,0.73
2018-12-07T23:34:02.419Z,0.70
2018-12-07T23:36:43.714Z,1.07
2018-12-07T23:39:18.784Z,0.77
2018-12-07T23:41:53.469Z,0.70
2018-12-07T23:44:28.414Z,0.70
2018-12-07T23:47:03.257Z,1.10
2018-12-07T23:49:37.998Z,0.80
2018-12-07T23:52:12.812Z,0.80
2018-12-07T23:54:47.747Z,1.00
2018-12-07T23:57:22.594Z,1.07
2018-12-07T23:59:57.402Z,1.03
